Weather reports worldwide

Advertisment
Desenzano, Italy (16089): temperature & dewpoint: 06.12.2019 11:00:00 - 12.12.2019 11:00:00 (CET)Desenzano, Italy (16089): wind speed: 06.12.2019 11:00:00 - 12.12.2019 11:00:00 (CET)Desenzano, Italy (16089): wind direction: 06.12.2019 11:00:00 - 12.12.2019 11:00:00 (CET)Desenzano, Italy (16089): reduced air pressure: 06.12.2019 11:00:00 - 12.12.2019 11:00:00 (CET)
Date & Time tt [°C] td [°C] ff [km/h] ff [kn] dd ppp [hPa]
12.12.2019 11:00:00 - - - - - -
12.12.2019 10:00:00 1,9 1,0 0 0 N 1007,9
12.12.2019 09:00:00 1,9 0,7 0 0 N 1007,6
12.12.2019 08:00:00 2,7 1,4 2 1 S 1007,2
12.12.2019 07:00:00 2,7 1,0 2 1 WSW 1006,9
12.12.2019 06:00:00 2,8 0,8 8 4 SSW 1006,5
12.12.2019 05:00:00 3,8 1,1 5 3 SW 1006,3
12.12.2019 04:00:00 3,6 0,6 4 2 SW 1006,6
12.12.2019 03:00:00 4,1 0,2 8 4 SW 1007,2
12.12.2019 02:00:00 4,4 1,2 0 0 N 1007,8
12.12.2019 01:00:00 3,6 -0,3 0 0 N 1008,5
12.12.2019 00:00:00 3,5 -1,1 0 0 N 1009,2
11.12.2019 23:00:00 3,8 -1,4 0 0 N 1009,8
11.12.2019 22:00:00 4,0 -1,9 0 0 N 1010,4
11.12.2019 21:00:00 4,1 -2,6 0 0 N 1011,2
11.12.2019 20:00:00 3,5 -2,5 0 0 N 1011,6
11.12.2019 19:00:00 3,5 -1,9 0 0 N 1012,1
11.12.2019 18:00:00 4,3 -2,2 0 0 N 1012,6
11.12.2019 17:00:00 6,1 -1,6 0 0 N 1013,1
11.12.2019 16:00:00 8,1 -1,0 0 0 N 1013,8
11.12.2019 15:00:00 9,1 -0,9 4 2 S 1014,8
11.12.2019 14:00:00 9,3 -0,4 0 0 N 1015,4
11.12.2019 13:00:00 9,9 -0,1 0 0 N 1016,5
11.12.2019 12:00:00 8,3 -0,6 5 3 NNW 1017,8
11.12.2019 11:00:00 7,9 -0,2 15 8 NNW 1019,2
11.12.2019 10:00:00 7,3 0,6 16 9 NNW 1020,0
11.12.2019 09:00:00 6,9 1,1 15 8 NNW 1020,1
11.12.2019 08:00:00 7,4 -0,2 5 3 N 1020,1
11.12.2019 07:00:00 7,5 -0,6 13 7 N 1020,4
11.12.2019 06:00:00 7,5 1,1 13 7 NW 1020,4
11.12.2019 05:00:00 7,8 0,9 15 8 NW 1020,9
11.12.2019 04:00:00 8,2 1,7 15 8 NNW 1021,4
11.12.2019 03:00:00 8,6 1,4 11 6 NNW 1022,0
11.12.2019 02:00:00 8,5 0,9 11 6 NNW 1022,4
11.12.2019 01:00:00 8,0 0,6 0 0 N 1022,9
11.12.2019 00:00:00 8,1 -2,7 0 0 N 1023,0
10.12.2019 23:00:00 11,0 1,7 15 8 N 1022,8
10.12.2019 22:00:00 11,8 2,7 13 7 NNE 1022,4
10.12.2019 21:00:00 12,1 -0,2 15 8 NE 1022,0
10.12.2019 20:00:00 12,2 0,8 21 11 ENE 1021,5
10.12.2019 19:00:00 12,6 0,9 31 17 N 1020,6
10.12.2019 18:00:00 13,2 2,0 31 17 N 1019,7
10.12.2019 17:00:00 - - - - - -
10.12.2019 16:00:00 13,8 2,0 31 17 N 1018,4
10.12.2019 15:00:00 13,7 3,7 29 16 N 1017,9
10.12.2019 14:00:00 13,7 4,2 31 17 N 1018,0
10.12.2019 13:00:00 13,8 3,5 29 16 N 1018,1
10.12.2019 12:00:00 13,0 3,3 22 12 N 1018,3
10.12.2019 11:00:00 11,6 5,2 16 9 NW 1018,2
10.12.2019 10:00:00 10,6 5,5 9 5 NW 1017,4
10.12.2019 09:00:00 7,3 3,9 0 0 N 1016,7
10.12.2019 08:00:00 7,6 7,6 4 2 WNW 1015,9
10.12.2019 07:00:00 3,6 3,2 0 0 N 1014,9
10.12.2019 06:00:00 3,7 3,1 4 2 SSW 1014,0
10.12.2019 05:00:00 4,0 3,3 0 0 N 1013,1
10.12.2019 04:00:00 4,9 4,2 0 0 N 1012,4
10.12.2019 03:00:00 5,3 3,4 0 0 N 1011,5
10.12.2019 02:00:00 8,6 7,8 4 2 WNW 1011,0
10.12.2019 01:00:00 5,4 5,3 2 1 SSW 1010,4
10.12.2019 00:00:00 5,7 5,7 4 2 SSW 1009,7
09.12.2019 23:00:00 5,8 5,7 2 1 S 1009,1
09.12.2019 22:00:00 6,1 6,0 0 0 N 1008,5
09.12.2019 21:00:00 6,2 5,4 0 0 N 1008,3
09.12.2019 20:00:00 7,6 7,0 0 0 N 1008,2
09.12.2019 19:00:00 8,0 7,2 0 0 N 1007,9
09.12.2019 18:00:00 8,7 8,1 0 0 N 1007,4
09.12.2019 17:00:00 8,6 7,8 0 0 N 1007,4
09.12.2019 16:00:00 8,8 8,2 0 0 N 1007,3
09.12.2019 15:00:00 8,9 8,6 0 0 N 1007,2
09.12.2019 14:00:00 8,6 8,4 0 0 N 1007,7
09.12.2019 13:00:00 8,5 8,3 0 0 N 1008,5
09.12.2019 12:00:00 8,2 8,2 0 0 N 1009,2
09.12.2019 11:00:00 8,5 8,5 0 0 N 1009,4
09.12.2019 10:00:00 8,1 8,1 0 0 N 1009,4
09.12.2019 09:00:00 7,7 7,7 0 0 N 1009,8
09.12.2019 08:00:00 7,8 7,7 0 0 N 1010,0
09.12.2019 07:00:00 7,6 7,5 0 0 N 1010,5
09.12.2019 06:00:00 7,6 7,3 0 0 N 1010,9
09.12.2019 05:00:00 7,7 7,2 0 0 N 1011,7
09.12.2019 04:00:00 7,9 7,1 0 0 N 1012,7
09.12.2019 03:00:00 7,9 6,7 0 0 N 1013,6
09.12.2019 02:00:00 8,0 6,8 0 0 N 1014,5
09.12.2019 01:00:00 8,1 6,7 0 0 N 1015,2
09.12.2019 00:00:00 8,2 6,6 0 0 N 1016,0
08.12.2019 23:00:00 8,3 6,6 0 0 N 1016,5
08.12.2019 22:00:00 8,4 6,5 0 0 N 1017,2
08.12.2019 21:00:00 8,6 6,5 0 0 N 1017,4
08.12.2019 20:00:00 8,6 6,7 0 0 N 1017,6
08.12.2019 19:00:00 8,3 6,4 0 0 N 1017,8
08.12.2019 18:00:00 8,4 6,2 0 0 N 1018,0
08.12.2019 17:00:00 8,9 5,4 0 0 N 1018,3
08.12.2019 16:00:00 10,6 6,3 0 0 N 1018,4
08.12.2019 15:00:00 11,4 5,9 0 0 N 1018,5
08.12.2019 14:00:00 12,3 6,1 0 0 N 1019,0
08.12.2019 13:00:00 12,3 7,3 0 0 N 1019,9
08.12.2019 12:00:00 10,4 7,1 0 0 N 1020,7
08.12.2019 11:00:00 9,1 6,9 0 0 N 1021,6
08.12.2019 10:00:00 8,0 7,1 0 0 N 1021,9
08.12.2019 09:00:00 6,0 5,9 8 4 NW 1022,1
08.12.2019 08:00:00 4,6 3,9 0 0 N 1021,8
08.12.2019 07:00:00 5,6 5,6 0 0 N 1021,6
08.12.2019 06:00:00 3,5 3,2 0 0 N 1021,4
08.12.2019 05:00:00 3,7 3,4 0 0 N 1021,5
08.12.2019 04:00:00 3,5 3,2 0 0 N 1021,5
08.12.2019 03:00:00 3,3 2,9 0 0 N 1022,0
08.12.2019 02:00:00 3,8 3,5 0 0 N 1022,0
08.12.2019 01:00:00 3,8 3,4 0 0 N 1022,1
08.12.2019 00:00:00 3,9 3,3 0 0 N 1022,2
07.12.2019 23:00:00 4,1 3,1 0 0 N 1021,8
07.12.2019 22:00:00 4,7 3,5 0 0 N 1021,6
07.12.2019 21:00:00 5,2 4,0 0 0 N 1021,1
07.12.2019 20:00:00 6,0 4,1 0 0 N 1020,8
07.12.2019 19:00:00 6,9 4,7 0 0 N 1020,3
07.12.2019 18:00:00 7,1 4,5 0 0 N 1019,9
07.12.2019 17:00:00 8,2 4,4 0 0 N 1019,0
07.12.2019 16:00:00 9,8 4,5 0 0 N 1018,7
07.12.2019 15:00:00 10,0 4,5 0 0 N 1018,2
07.12.2019 14:00:00 10,3 3,7 0 0 N 1018,1
07.12.2019 13:00:00 9,8 5,9 0 0 N 1018,9
07.12.2019 12:00:00 9,0 4,6 0 0 N 1019,5
07.12.2019 11:00:00 8,2 7,4 0 0 N 1020,0
07.12.2019 10:00:00 6,2 6,1 0 0 N 1019,8
07.12.2019 09:00:00 4,6 4,2 2 1 S 1019,6
07.12.2019 08:00:00 4,5 3,5 2 1 SSW 1019,2
07.12.2019 07:00:00 5,5 4,4 0 0 N 1019,2
07.12.2019 06:00:00 6,2 5,4 0 0 N 1019,0
07.12.2019 05:00:00 5,8 5,1 2 1 SSW 1019,2
07.12.2019 04:00:00 5,6 4,1 2 1 S 1019,6
07.12.2019 03:00:00 6,7 4,5 2 1 SSW 1020,2
07.12.2019 02:00:00 7,0 5,1 0 0 N 1020,6
07.12.2019 01:00:00 7,1 4,9 0 0 N 1020,9
07.12.2019 00:00:00 6,6 4,9 0 0 N 1021,4
06.12.2019 23:00:00 6,0 4,0 5 3 SW 1021,7
06.12.2019 22:00:00 6,7 4,7 0 0 N 1022,0
06.12.2019 21:00:00 6,7 4,3 0 0 N 1022,3
06.12.2019 20:00:00 7,0 4,4 0 0 N 1022,6
06.12.2019 19:00:00 6,9 4,3 0 0 N 1022,7
06.12.2019 18:00:00 7,0 3,7 0 0 N 1022,7
06.12.2019 17:00:00 7,9 3,9 0 0 N 1022,9
06.12.2019 16:00:00 8,5 4,1 0 0 N 1023,1
06.12.2019 15:00:00 9,0 3,6 0 0 N 1023,5
06.12.2019 14:00:00 9,1 4,1 0 0 N 1024,1
06.12.2019 13:00:00 8,8 3,6 0 0 N 1024,9
06.12.2019 12:00:00 8,6 3,8 11 6 N 1025,5
06.12.2019 11:00:00 8,1 3,7 16 9 NNW 1026,3

tt = temperature
td = dewpoint
ff = wind speed
dd = wind direction
ppp = reduced air pressure

Next stations